sensor_id;sensor_type;location;lat;lon;timestamp;P1;durP1;ratioP1;P2;durP2;ratioP2
11865;SDS011;5992;52.744;6.898;2023-09-12T00:02:20;19.77;;;15.17;;
11865;SDS011;5992;52.744;6.898;2023-09-12T00:05:33;24.75;;;15.30;;
11865;SDS011;5992;52.744;6.898;2023-09-12T00:08:46;18.83;;;15.60;;
11865;SDS011;5992;52.744;6.898;2023-09-12T00:12:13;21.70;;;16.50;;
11865;SDS011;5992;52.744;6.898;2023-09-12T00:15:24;18.57;;;15.60;;
11865;SDS011;5992;52.744;6.898;2023-09-12T00:18:37;21.65;;;16.25;;
11865;SDS011;5992;52.744;6.898;2023-09-12T00:21:49;18.77;;;15.43;;
11865;SDS011;5992;52.744;6.898;2023-09-12T00:25:04;18.83;;;15.33;;
11865;SDS011;5992;52.744;6.898;2023-09-12T00:28:16;21.40;;;17.00;;
11865;SDS011;5992;52.744;6.898;2023-09-12T00:31:41;18.23;;;15.23;;
11865;SDS011;5992;52.744;6.898;2023-09-12T00:34:53;17.90;;;15.63;;
11865;SDS011;5992;52.744;6.898;2023-09-12T00:38:09;20.27;;;14.80;;
11865;SDS011;5992;52.744;6.898;2023-09-12T00:41:12;24.10;;;19.75;;
11865;SDS011;5992;52.744;6.898;2023-09-12T00:44:37;28.17;;;20.07;;
11865;SDS011;5992;52.744;6.898;2023-09-12T00:47:39;22.57;;;17.90;;
11865;SDS011;5992;52.744;6.898;2023-09-12T00:51:04;19.93;;;15.70;;
11865;SDS011;5992;52.744;6.898;2023-09-12T00:54:16;17.63;;;14.80;;
11865;SDS011;5992;52.744;6.898;2023-09-12T00:57:42;26.07;;;19.90;;
11865;SDS011;5992;52.744;6.898;2023-09-12T01:00:54;29.50;;;21.67;;
11865;SDS011;5992;52.744;6.898;2023-09-12T01:04:19;24.37;;;18.13;;
11865;SDS011;5992;52.744;6.898;2023-09-12T01:07:30;25.70;;;18.67;;
11865;SDS011;5992;52.744;6.898;2023-09-12T01:10:43;28.57;;;16.33;;
11865;SDS011;5992;52.744;6.898;2023-09-12T01:13:57;25.77;;;20.50;;
11865;SDS011;5992;52.744;6.898;2023-09-12T01:17:22;21.63;;;16.80;;
11865;SDS011;5992;52.744;6.898;2023-09-12T01:20:34;24.30;;;19.10;;
11865;SDS011;5992;52.744;6.898;2023-09-12T01:24:01;22.93;;;17.40;;
11865;SDS011;5992;52.744;6.898;2023-09-12T01:27:18;21.37;;;17.90;;
11865;SDS011;5992;52.744;6.898;2023-09-12T01:30:44;22.73;;;18.03;;
11865;SDS011;5992;52.744;6.898;2023-09-12T01:34:08;23.23;;;18.50;;
11865;SDS011;5992;52.744;6.898;2023-09-12T01:37:32;23.43;;;18.07;;
11865;SDS011;5992;52.744;6.898;2023-09-12T01:40:34;21.67;;;16.57;;
11865;SDS011;5992;52.744;6.898;2023-09-12T01:44:00;20.20;;;15.30;;
11865;SDS011;5992;52.744;6.898;2023-09-12T01:47:24;23.83;;;16.63;;
11865;SDS011;5992;52.744;6.898;2023-09-12T01:50:48;22.67;;;16.63;;
11865;SDS011;5992;52.744;6.898;2023-09-12T01:54:00;17.07;;;13.77;;
11865;SDS011;5992;52.744;6.898;2023-09-12T01:57:24;19.07;;;16.07;;
11865;SDS011;5992;52.744;6.898;2023-09-12T02:00:38;23.53;;;17.37;;
11865;SDS011;5992;52.744;6.898;2023-09-12T02:04:03;19.45;;;16.25;;
11865;SDS011;5992;52.744;6.898;2023-09-12T02:07:16;19.73;;;15.93;;
11865;SDS011;5992;52.744;6.898;2023-09-12T02:10:30;26.40;;;19.60;;
11865;SDS011;5992;52.744;6.898;2023-09-12T02:13:32;22.30;;;17.43;;
11865;SDS011;5992;52.744;6.898;2023-09-12T02:16:48;25.67;;;17.97;;
11865;SDS011;5992;52.744;6.898;2023-09-12T02:20:13;21.63;;;17.17;;
11865;SDS011;5992;52.744;6.898;2023-09-12T02:23:13;25.13;;;18.23;;
11865;SDS011;5992;52.744;6.898;2023-09-12T02:26:27;24.23;;;16.67;;
11865;SDS011;5992;52.744;6.898;2023-09-12T02:29:28;22.50;;;17.20;;
11865;SDS011;5992;52.744;6.898;2023-09-12T02:32:54;19.60;;;16.80;;
11865;SDS011;5992;52.744;6.898;2023-09-12T02:36:06;28.03;;;19.30;;
11865;SDS011;5992;52.744;6.898;2023-09-12T02:39:31;18.97;;;15.03;;
11865;SDS011;5992;52.744;6.898;2023-09-12T02:42:33;18.90;;;16.00;;
11865;SDS011;5992;52.744;6.898;2023-09-12T02:45:46;17.77;;;14.93;;
11865;SDS011;5992;52.744;6.898;2023-09-12T02:49:00;20.90;;;17.13;;
11865;SDS011;5992;52.744;6.898;2023-09-12T02:52:25;17.77;;;14.97;;
11865;SDS011;5992;52.744;6.898;2023-09-12T02:55:26;17.87;;;15.53;;
11865;SDS011;5992;52.744;6.898;2023-09-12T02:58:39;20.33;;;16.40;;
11865;SDS011;5992;52.744;6.898;2023-09-12T03:01:40;21.67;;;18.13;;
11865;SDS011;5992;52.744;6.898;2023-09-12T03:04:54;19.67;;;17.50;;
11865;SDS011;5992;52.744;6.898;2023-09-12T03:08:07;20.40;;;17.43;;
11865;SDS011;5992;52.744;6.898;2023-09-12T03:11:20;17.57;;;15.70;;
11865;SDS011;5992;52.744;6.898;2023-09-12T03:14:21;19.67;;;16.60;;
11865;SDS011;5992;52.744;6.898;2023-09-12T03:17:34;17.67;;;15.37;;
11865;SDS011;5992;52.744;6.898;2023-09-12T03:20:38;20.93;;;18.57;;
11865;SDS011;5992;52.744;6.898;2023-09-12T03:24:03;17.37;;;15.57;;
11865;SDS011;5992;52.744;6.898;2023-09-12T03:27:16;20.47;;;16.40;;
11865;SDS011;5992;52.744;6.898;2023-09-12T03:30:30;26.17;;;18.83;;
11865;SDS011;5992;52.744;6.898;2023-09-12T03:33:43;42.87;;;18.50;;
11865;SDS011;5992;52.744;6.898;2023-09-12T03:37:09;31.03;;;15.83;;
11865;SDS011;5992;52.744;6.898;2023-09-12T03:40:22;25.07;;;16.40;;
11865;SDS011;5992;52.744;6.898;2023-09-12T03:43:35;38.03;;;16.23;;
11865;SDS011;5992;52.744;6.898;2023-09-12T03:46:59;36.10;;;15.63;;
11865;SDS011;5992;52.744;6.898;2023-09-12T03:50:12;25.63;;;16.10;;
11865;SDS011;5992;52.744;6.898;2023-09-12T03:53:37;33.30;;;15.03;;
11865;SDS011;5992;52.744;6.898;2023-09-12T03:57:02;21.50;;;12.77;;
11865;SDS011;5992;52.744;6.898;2023-09-12T04:00:15;25.03;;;14.37;;
11865;SDS011;5992;52.744;6.898;2023-09-12T04:03:28;14.20;;;12.33;;
11865;SDS011;5992;52.744;6.898;2023-09-12T04:06:28;15.87;;;13.10;;
11865;SDS011;5992;52.744;6.898;2023-09-12T04:09:53;17.17;;;12.43;;
11865;SDS011;5992;52.744;6.898;2023-09-12T04:13:06;23.17;;;13.93;;
11865;SDS011;5992;52.744;6.898;2023-09-12T04:16:19;17.17;;;12.17;;
11865;SDS011;5992;52.744;6.898;2023-09-12T04:19:32;23.23;;;13.03;;
11865;SDS011;5992;52.744;6.898;2023-09-12T04:22:46;17.20;;;11.47;;
11865;SDS011;5992;52.744;6.898;2023-09-12T04:26:10;12.83;;;11.53;;
11865;SDS011;5992;52.744;6.898;2023-09-12T04:29:35;19.40;;;11.63;;
11865;SDS011;5992;52.744;6.898;2023-09-12T04:32:48;17.27;;;11.67;;
11865;SDS011;5992;52.744;6.898;2023-09-12T04:36:01;22.63;;;12.97;;
11865;SDS011;5992;52.744;6.898;2023-09-12T04:39:14;18.47;;;12.23;;
11865;SDS011;5992;52.744;6.898;2023-09-12T04:42:29;12.37;;;11.17;;
11865;SDS011;5992;52.744;6.898;2023-09-12T04:45:54;19.00;;;12.40;;
11865;SDS011;5992;52.744;6.898;2023-09-12T04:49:08;16.40;;;12.77;;
11865;SDS011;5992;52.744;6.898;2023-09-12T04:52:21;14.50;;;12.53;;
11865;SDS011;5992;52.744;6.898;2023-09-12T04:55:34;14.77;;;11.87;;
11865;SDS011;5992;52.744;6.898;2023-09-12T04:59:03;12.70;;;11.40;;
11865;SDS011;5992;52.744;6.898;2023-09-12T05:02:28;14.07;;;12.27;;
11865;SDS011;5992;52.744;6.898;2023-09-12T05:05:41;12.70;;;11.50;;
11865;SDS011;5992;52.744;6.898;2023-09-12T05:08:55;16.30;;;12.23;;
11865;SDS011;5992;52.744;6.898;2023-09-12T05:12:08;13.63;;;12.23;;
11865;SDS011;5992;52.744;6.898;2023-09-12T05:15:34;20.93;;;13.93;;
11865;SDS011;5992;52.744;6.898;2023-09-12T05:18:59;13.53;;;12.13;;
11865;SDS011;5992;52.744;6.898;2023-09-12T05:22:13;16.03;;;14.27;;
11865;SDS011;5992;52.744;6.898;2023-09-12T05:25:26;13.43;;;12.07;;
11865;SDS011;5992;52.744;6.898;2023-09-12T05:28:40;12.43;;;11.13;;
11865;SDS011;5992;52.744;6.898;2023-09-12T05:32:06;16.07;;;13.87;;
11865;SDS011;5992;52.744;6.898;2023-09-12T05:35:31;15.03;;;12.90;;
11865;SDS011;5992;52.744;6.898;2023-09-12T05:38:32;14.17;;;12.67;;
11865;SDS011;5992;52.744;6.898;2023-09-12T05:41:45;14.23;;;12.50;;
11865;SDS011;5992;52.744;6.898;2023-09-12T05:44:58;16.00;;;13.60;;
11865;SDS011;5992;52.744;6.898;2023-09-12T05:48:12;18.97;;;16.27;;
11865;SDS011;5992;52.744;6.898;2023-09-12T05:51:37;15.20;;;12.57;;
11865;SDS011;5992;52.744;6.898;2023-09-12T05:54:51;14.87;;;12.87;;
11865;SDS011;5992;52.744;6.898;2023-09-12T05:58:03;16.90;;;15.20;;
11865;SDS011;5992;52.744;6.898;2023-09-12T06:01:28;16.63;;;13.87;;
11865;SDS011;5992;52.744;6.898;2023-09-12T06:04:44;18.23;;;13.03;;
11865;SDS011;5992;52.744;6.898;2023-09-12T06:07:56;15.43;;;13.60;;
11865;SDS011;5992;52.744;6.898;2023-09-12T06:11:09;16.13;;;13.47;;
11865;SDS011;5992;52.744;6.898;2023-09-12T06:14:10;16.10;;;13.63;;
11865;SDS011;5992;52.744;6.898;2023-09-12T06:17:24;16.27;;;13.57;;
11865;SDS011;5992;52.744;6.898;2023-09-12T06:20:27;19.47;;;14.27;;
11865;SDS011;5992;52.744;6.898;2023-09-12T06:24:09;20.47;;;15.40;;
11865;SDS011;5992;52.744;6.898;2023-09-12T06:27:09;19.40;;;15.83;;
11865;SDS011;5992;52.744;6.898;2023-09-12T06:30:22;24.77;;;17.90;;
11865;SDS011;5992;52.744;6.898;2023-09-12T06:33:24;20.27;;;16.17;;
11865;SDS011;5992;52.744;6.898;2023-09-12T06:36:50;22.00;;;16.80;;
11865;SDS011;5992;52.744;6.898;2023-09-12T06:40:02;24.47;;;18.53;;
11865;SDS011;5992;52.744;6.898;2023-09-12T06:43:15;22.73;;;16.90;;
11865;SDS011;5992;52.744;6.898;2023-09-12T06:46:16;23.77;;;17.77;;
11865;SDS011;5992;52.744;6.898;2023-09-12T06:49:40;22.10;;;15.27;;
11865;SDS011;5992;52.744;6.898;2023-09-12T06:52:44;19.77;;;15.97;;
11865;SDS011;5992;52.744;6.898;2023-09-12T06:56:08;32.00;;;20.57;;
11865;SDS011;5992;52.744;6.898;2023-09-12T06:59:21;24.47;;;19.37;;
11865;SDS011;5992;52.744;6.898;2023-09-12T07:02:35;23.53;;;17.40;;
11865;SDS011;5992;52.744;6.898;2023-09-12T07:05:36;24.77;;;17.20;;
11865;SDS011;5992;52.744;6.898;2023-09-12T07:08:51;25.03;;;17.87;;
11865;SDS011;5992;52.744;6.898;2023-09-12T07:12:02;26.47;;;20.30;;
11865;SDS011;5992;52.744;6.898;2023-09-12T07:15:15;23.00;;;16.00;;
11865;SDS011;5992;52.744;6.898;2023-09-12T07:18:16;21.53;;;17.27;;
11865;SDS011;5992;52.744;6.898;2023-09-12T07:21:40;21.63;;;16.73;;
11865;SDS011;5992;52.744;6.898;2023-09-12T07:24:55;23.90;;;17.83;;
11865;SDS011;5992;52.744;6.898;2023-09-12T07:28:21;24.23;;;18.47;;
11865;SDS011;5992;52.744;6.898;2023-09-12T07:31:22;29.50;;;19.43;;
11865;SDS011;5992;52.744;6.898;2023-09-12T07:34:36;26.00;;;18.73;;
11865;SDS011;5992;52.744;6.898;2023-09-12T07:37:38;21.70;;;17.63;;
11865;SDS011;5992;52.744;6.898;2023-09-12T07:40:53;25.77;;;17.57;;
11865;SDS011;5992;52.744;6.898;2023-09-12T07:44:06;26.97;;;19.63;;
11865;SDS011;5992;52.744;6.898;2023-09-12T07:47:19;22.07;;;17.83;;
11865;SDS011;5992;52.744;6.898;2023-09-12T07:50:21;22.17;;;17.17;;
11865;SDS011;5992;52.744;6.898;2023-09-12T07:53:33;21.93;;;17.63;;
11865;SDS011;5992;52.744;6.898;2023-09-12T07:56:35;27.90;;;16.90;;
11865;SDS011;5992;52.744;6.898;2023-09-12T07:59:59;24.73;;;18.83;;
11865;SDS011;5992;52.744;6.898;2023-09-12T08:03:13;27.87;;;18.67;;
11865;SDS011;5992;52.744;6.898;2023-09-12T08:06:14;25.80;;;17.70;;
11865;SDS011;5992;52.744;6.898;2023-09-12T08:09:47;23.33;;;17.57;;
11865;SDS011;5992;52.744;6.898;2023-09-12T08:12:42;34.03;;;17.83;;
11865;SDS011;5992;52.744;6.898;2023-09-12T08:16:08;21.70;;;16.20;;
11865;SDS011;5992;52.744;6.898;2023-09-12T08:19:09;25.10;;;17.85;;
11865;SDS011;5992;52.744;6.898;2023-09-12T08:22:33;25.13;;;18.77;;
11865;SDS011;5992;52.744;6.898;2023-09-12T08:25:34;23.90;;;17.17;;
11865;SDS011;5992;52.744;6.898;2023-09-12T08:28:49;24.23;;;18.37;;
11865;SDS011;5992;52.744;6.898;2023-09-12T08:32:02;29.07;;;17.70;;
11865;SDS011;5992;52.744;6.898;2023-09-12T08:35:28;22.23;;;16.97;;
11865;SDS011;5992;52.744;6.898;2023-09-12T08:38:29;36.23;;;21.57;;
11865;SDS011;5992;52.744;6.898;2023-09-12T08:41:42;26.67;;;18.23;;
11865;SDS011;5992;52.744;6.898;2023-09-12T08:44:44;27.27;;;19.67;;
11865;SDS011;5992;52.744;6.898;2023-09-12T08:48:08;25.90;;;18.73;;
11865;SDS011;5992;52.744;6.898;2023-09-12T08:51:20;23.60;;;17.50;;
11865;SDS011;5992;52.744;6.898;2023-09-12T08:54:45;24.35;;;17.60;;
11865;SDS011;5992;52.744;6.898;2023-09-12T08:57:57;24.10;;;16.43;;
11865;SDS011;5992;52.744;6.898;2023-09-12T09:01:22;23.17;;;17.77;;
11865;SDS011;5992;52.744;6.898;2023-09-12T09:04:35;26.33;;;17.97;;
11865;SDS011;5992;52.744;6.898;2023-09-12T09:07:59;21.07;;;16.57;;
11865;SDS011;5992;52.744;6.898;2023-09-12T09:11:11;20.57;;;16.53;;
11865;SDS011;5992;52.744;6.898;2023-09-12T09:14:25;20.17;;;15.70;;
11865;SDS011;5992;52.744;6.898;2023-09-12T09:17:27;20.70;;;16.27;;
11865;SDS011;5992;52.744;6.898;2023-09-12T10:35:46;15.83;;;13.73;;
11865;SDS011;5992;52.744;6.898;2023-09-12T10:38:58;17.07;;;13.40;;
11865;SDS011;5992;52.744;6.898;2023-09-12T10:42:22;12.87;;;11.20;;
11865;SDS011;5992;52.744;6.898;2023-09-12T10:45:34;16.55;;;13.50;;
11865;SDS011;5992;52.744;6.898;2023-09-12T10:49:01;16.37;;;14.40;;
11865;SDS011;5992;52.744;6.898;2023-09-12T10:52:23;15.65;;;12.90;;
11865;SDS011;5992;52.744;6.898;2023-09-12T10:55:57;15.40;;;12.90;;
11865;SDS011;5992;52.744;6.898;2023-09-12T10:59:11;13.13;;;11.60;;
11865;SDS011;5992;52.744;6.898;2023-09-12T11:02:35;12.77;;;11.27;;
11865;SDS011;5992;52.744;6.898;2023-09-12T11:05:52;15.30;;;13.37;;
11865;SDS011;5992;52.744;6.898;2023-09-12T11:09:17;15.47;;;12.77;;
11865;SDS011;5992;52.744;6.898;2023-09-12T11:12:35;16.55;;;14.05;;
11865;SDS011;5992;52.744;6.898;2023-09-12T11:16:09;12.80;;;10.70;;
11865;SDS011;5992;52.744;6.898;2023-09-12T11:19:21;14.83;;;11.37;;
11865;SDS011;5992;52.744;6.898;2023-09-12T11:22:48;12.77;;;11.30;;
11865;SDS011;5992;52.744;6.898;2023-09-12T11:26:03;12.77;;;10.97;;
11865;SDS011;5992;52.744;6.898;2023-09-12T11:29:29;12.75;;;10.75;;
11865;SDS011;5992;52.744;6.898;2023-09-12T11:32:41;13.33;;;11.97;;
11865;SDS011;5992;52.744;6.898;2023-09-12T11:36:06;11.37;;;10.17;;
11865;SDS011;5992;52.744;6.898;2023-09-12T11:39:23;12.03;;;10.27;;
11865;SDS011;5992;52.744;6.898;2023-09-12T11:42:51;13.85;;;10.60;;
11865;SDS011;5992;52.744;6.898;2023-09-12T11:46:04;12.07;;;10.87;;
11865;SDS011;5992;52.744;6.898;2023-09-12T11:49:28;12.73;;;10.27;;
11865;SDS011;5992;52.744;6.898;2023-09-12T11:52:40;10.60;;;9.47;;
11865;SDS011;5992;52.744;6.898;2023-09-12T11:55:56;12.40;;;10.40;;
11865;SDS011;5992;52.744;6.898;2023-09-12T12:52:13;11.17;;;9.27;;
11865;SDS011;5992;52.744;6.898;2023-09-12T12:55:15;11.00;;;9.47;;
11865;SDS011;5992;52.744;6.898;2023-09-12T12:58:44;9.55;;;8.35;;
11865;SDS011;5992;52.744;6.898;2023-09-12T13:01:56;9.15;;;7.80;;
11865;SDS011;5992;52.744;6.898;2023-09-12T13:05:21;9.90;;;8.67;;
11865;SDS011;5992;52.744;6.898;2023-09-12T13:08:33;9.03;;;8.13;;
11865;SDS011;5992;52.744;6.898;2023-09-12T13:11:56;11.23;;;8.10;;
11865;SDS011;5992;52.744;6.898;2023-09-12T13:57:05;8.30;;;6.60;;
11865;SDS011;5992;52.744;6.898;2023-09-12T14:00:06;7.30;;;6.40;;
11865;SDS011;5992;52.744;6.898;2023-09-12T14:03:32;8.10;;;6.50;;
11865;SDS011;5992;52.744;6.898;2023-09-12T15:38:38;6.90;;;5.20;;
11865;SDS011;5992;52.744;6.898;2023-09-12T15:48:20;6.80;;;4.90;;
11865;SDS011;5992;52.744;6.898;2023-09-12T15:51:33;5.80;;;5.20;;
11865;SDS011;5992;52.744;6.898;2023-09-12T17:59:49;3.70;;;2.73;;
11865;SDS011;5992;52.744;6.898;2023-09-12T18:03:02;3.63;;;3.00;;
11865;SDS011;5992;52.744;6.898;2023-09-12T18:06:03;5.15;;;3.40;;
11865;SDS011;5992;52.744;6.898;2023-09-12T18:09:16;3.20;;;2.90;;
11865;SDS011;5992;52.744;6.898;2023-09-12T19:21:32;4.30;;;3.43;;
11865;SDS011;5992;52.744;6.898;2023-09-12T19:24:34;6.30;;;3.43;;
11865;SDS011;5992;52.744;6.898;2023-09-12T19:27:47;3.65;;;3.35;;
11865;SDS011;5992;52.744;6.898;2023-09-12T19:30:48;6.80;;;4.45;;
11865;SDS011;5992;52.744;6.898;2023-09-12T19:34:03;6.20;;;3.70;;
11865;SDS011;5992;52.744;6.898;2023-09-12T19:37:16;4.90;;;3.67;;
11865;SDS011;5992;52.744;6.898;2023-09-12T19:40:30;6.33;;;4.17;;
11865;SDS011;5992;52.744;6.898;2023-09-12T19:43:31;6.43;;;4.13;;
11865;SDS011;5992;52.744;6.898;2023-09-12T19:46:45;4.40;;;3.95;;
11865;SDS011;5992;52.744;6.898;2023-09-12T19:49:47;7.10;;;3.80;;
11865;SDS011;5992;52.744;6.898;2023-09-12T19:53:13;4.33;;;3.47;;
11865;SDS011;5992;52.744;6.898;2023-09-12T19:56:14;4.77;;;3.90;;
11865;SDS011;5992;52.744;6.898;2023-09-12T19:59:27;5.33;;;4.00;;
11865;SDS011;5992;52.744;6.898;2023-09-12T20:02:51;5.40;;;4.13;;
11865;SDS011;5992;52.744;6.898;2023-09-12T20:06:04;5.67;;;5.10;;
11865;SDS011;5992;52.744;6.898;2023-09-12T20:09:30;5.97;;;3.80;;
11865;SDS011;5992;52.744;6.898;2023-09-12T20:12:31;4.40;;;3.53;;
11865;SDS011;5992;52.744;6.898;2023-09-12T20:15:55;6.10;;;4.50;;
11865;SDS011;5992;52.744;6.898;2023-09-12T20:18:56;4.70;;;4.17;;
11865;SDS011;5992;52.744;6.898;2023-09-12T20:22:10;9.50;;;4.20;;
11865;SDS011;5992;52.744;6.898;2023-09-12T20:25:23;7.57;;;4.90;;
11865;SDS011;5992;52.744;6.898;2023-09-12T20:28:37;4.57;;;4.17;;
11865;SDS011;5992;52.744;6.898;2023-09-12T20:31:49;5.07;;;4.53;;
11865;SDS011;5992;52.744;6.898;2023-09-12T20:35:02;4.97;;;4.47;;
11865;SDS011;5992;52.744;6.898;2023-09-12T20:38:04;5.23;;;4.70;;
11865;SDS011;5992;52.744;6.898;2023-09-12T20:41:29;5.30;;;4.80;;
11865;SDS011;5992;52.744;6.898;2023-09-12T20:44:30;5.63;;;3.90;;
11865;SDS011;5992;52.744;6.898;2023-09-12T20:47:46;7.03;;;4.83;;
11865;SDS011;5992;52.744;6.898;2023-09-12T20:50:58;6.80;;;5.00;;
11865;SDS011;5992;52.744;6.898;2023-09-12T20:54:13;5.37;;;4.87;;
11865;SDS011;5992;52.744;6.898;2023-09-12T21:38:02;5.77;;;5.10;;
11865;SDS011;5992;52.744;6.898;2023-09-12T21:41:03;7.30;;;5.20;;
11865;SDS011;5992;52.744;6.898;2023-09-12T21:44:15;7.80;;;5.33;;
11865;SDS011;5992;52.744;6.898;2023-09-12T21:47:16;8.33;;;6.43;;
11865;SDS011;5992;52.744;6.898;2023-09-12T21:50:31;6.50;;;5.70;;
11865;SDS011;5992;52.744;6.898;2023-09-12T21:53:44;6.80;;;5.57;;
11865;SDS011;5992;52.744;6.898;2023-09-12T21:56:57;4.43;;;4.03;;
11865;SDS011;5992;52.744;6.898;2023-09-12T21:59:58;6.17;;;5.53;;
11865;SDS011;5992;52.744;6.898;2023-09-12T22:03:11;6.87;;;4.93;;
11865;SDS011;5992;52.744;6.898;2023-09-12T22:06:12;7.90;;;5.60;;
11865;SDS011;5992;52.744;6.898;2023-09-12T22:09:37;5.93;;;4.80;;
11865;SDS011;5992;52.744;6.898;2023-09-12T22:12:39;5.00;;;4.27;;
11865;SDS011;5992;52.744;6.898;2023-09-12T22:16:03;6.07;;;5.20;;
11865;SDS011;5992;52.744;6.898;2023-09-12T22:19:04;6.37;;;4.63;;
11865;SDS011;5992;52.744;6.898;2023-09-12T22:22:19;5.57;;;4.33;;
11865;SDS011;5992;52.744;6.898;2023-09-12T22:25:32;6.00;;;4.50;;
11865;SDS011;5992;52.744;6.898;2023-09-12T22:28:45;5.87;;;4.60;;
11865;SDS011;5992;52.744;6.898;2023-09-12T22:31:57;5.67;;;5.07;;
11865;SDS011;5992;52.744;6.898;2023-09-12T22:35:10;8.13;;;4.33;;
11865;SDS011;5992;52.744;6.898;2023-09-12T22:38:24;5.27;;;4.43;;
11865;SDS011;5992;52.744;6.898;2023-09-12T22:41:49;6.10;;;4.43;;
11865;SDS011;5992;52.744;6.898;2023-09-12T22:44:50;7.00;;;5.60;;
11865;SDS011;5992;52.744;6.898;2023-09-12T22:48:03;6.97;;;6.37;;
11865;SDS011;5992;52.744;6.898;2023-09-12T22:51:05;6.43;;;5.83;;
11865;SDS011;5992;52.744;6.898;2023-09-12T22:54:21;4.40;;;3.67;;
11865;SDS011;5992;52.744;6.898;2023-09-12T22:57:32;10.17;;;6.53;;
11865;SDS011;5992;52.744;6.898;2023-09-12T23:00:45;6.90;;;5.03;;
11865;SDS011;5992;52.744;6.898;2023-09-12T23:03:46;5.77;;;5.13;;
11865;SDS011;5992;52.744;6.898;2023-09-12T23:06:59;7.47;;;5.80;;
11865;SDS011;5992;52.744;6.898;2023-09-12T23:10:13;6.87;;;5.90;;
11865;SDS011;5992;52.744;6.898;2023-09-12T23:13:37;5.43;;;4.87;;
11865;SDS011;5992;52.744;6.898;2023-09-12T23:16:39;6.27;;;5.67;;
11865;SDS011;5992;52.744;6.898;2023-09-12T23:19:52;11.87;;;5.73;;
11865;SDS011;5992;52.744;6.898;2023-09-12T23:22:53;5.80;;;5.20;;
11865;SDS011;5992;52.744;6.898;2023-09-12T23:26:08;6.17;;;5.47;;
11865;SDS011;5992;52.744;6.898;2023-09-12T23:29:20;9.07;;;5.73;;
11865;SDS011;5992;52.744;6.898;2023-09-12T23:32:33;7.53;;;5.60;;
11865;SDS011;5992;52.744;6.898;2023-09-12T23:35:34;7.83;;;5.73;;
11865;SDS011;5992;52.744;6.898;2023-09-12T23:38:47;9.03;;;6.33;;
11865;SDS011;5992;52.744;6.898;2023-09-12T23:41:50;8.33;;;7.27;;
11865;SDS011;5992;52.744;6.898;2023-09-12T23:45:15;7.23;;;5.43;;
11865;SDS011;5992;52.744;6.898;2023-09-12T23:48:16;9.10;;;8.10;;
11865;SDS011;5992;52.744;6.898;2023-09-12T23:51:29;8.93;;;7.33;;
11865;SDS011;5992;52.744;6.898;2023-09-12T23:54:30;6.90;;;6.20;;
11865;SDS011;5992;52.744;6.898;2023-09-12T23:57:56;8.13;;;6.87;;
